sensor_id;sensor_type;location;lat;lon;timestamp;temperature;humidity
26278;DHT22;14000;52.056;8.510;2023-04-03T00:05:07;2.80;99.90
26278;DHT22;14000;52.056;8.510;2023-04-03T00:07:33;2.70;99.90
26278;DHT22;14000;52.056;8.510;2023-04-03T00:09:58;2.70;99.90
26278;DHT22;14000;52.056;8.510;2023-04-03T00:12:24;2.70;99.90
26278;DHT22;14000;52.056;8.510;2023-04-03T00:14:49;2.60;99.90
26278;DHT22;14000;52.056;8.510;2023-04-03T00:17:15;2.60;99.90
26278;DHT22;14000;52.056;8.510;2023-04-03T00:19:41;2.50;99.90
26278;DHT22;14000;52.056;8.510;2023-04-03T00:22:06;2.50;99.90
26278;DHT22;14000;52.056;8.510;2023-04-03T00:24:32;2.50;99.90
26278;DHT22;14000;52.056;8.510;2023-04-03T00:26:57;2.50;99.90
26278;DHT22;14000;52.056;8.510;2023-04-03T00:29:23;2.40;99.90
26278;DHT22;14000;52.056;8.510;2023-04-03T00:31:48;2.40;99.90
26278;DHT22;14000;52.056;8.510;2023-04-03T00:34:14;2.30;99.90
26278;DHT22;14000;52.056;8.510;2023-04-03T00:36:40;2.30;99.90
26278;DHT22;14000;52.056;8.510;2023-04-03T00:39:05;2.30;99.90
26278;DHT22;14000;52.056;8.510;2023-04-03T00:41:31;2.20;99.90
26278;DHT22;14000;52.056;8.510;2023-04-03T00:43:58;2.20;99.90
26278;DHT22;14000;52.056;8.510;2023-04-03T00:46:23;2.20;99.90
26278;DHT22;14000;52.056;8.510;2023-04-03T00:48:49;2.10;99.90
26278;DHT22;14000;52.056;8.510;2023-04-03T00:51:24;2.10;99.90
26278;DHT22;14000;52.056;8.510;2023-04-03T00:53:59;2.10;99.90
26278;DHT22;14000;52.056;8.510;2023-04-03T00:56:27;2.10;99.90
26278;DHT22;14000;52.056;8.510;2023-04-03T00:58:58;2.00;99.90
26278;DHT22;14000;52.056;8.510;2023-04-03T01:01:26;1.90;99.90
26278;DHT22;14000;52.056;8.510;2023-04-03T01:03:52;2.00;99.90
26278;DHT22;14000;52.056;8.510;2023-04-03T01:06:23;1.90;99.90
26278;DHT22;14000;52.056;8.510;2023-04-03T01:08:50;1.90;99.90
26278;DHT22;14000;52.056;8.510;2023-04-03T01:11:16;1.90;99.90
26278;DHT22;14000;52.056;8.510;2023-04-03T01:13:41;1.90;99.90
26278;DHT22;14000;52.056;8.510;2023-04-03T01:16:07;1.80;99.90
26278;DHT22;14000;52.056;8.510;2023-04-03T01:18:36;1.80;99.90
26278;DHT22;14000;52.056;8.510;2023-04-03T01:26:45;1.80;99.90
26278;DHT22;14000;52.056;8.510;2023-04-03T01:29:10;1.70;99.90
26278;DHT22;14000;52.056;8.510;2023-04-03T01:34:16;1.70;99.90
26278;DHT22;14000;52.056;8.510;2023-04-03T01:36:41;1.70;99.90
26278;DHT22;14000;52.056;8.510;2023-04-03T01:39:07;1.70;99.90
26278;DHT22;14000;52.056;8.510;2023-04-03T01:41:33;1.70;99.90
26278;DHT22;14000;52.056;8.510;2023-04-03T01:43:59;1.60;99.90
26278;DHT22;14000;52.056;8.510;2023-04-03T01:46:24;1.60;99.90
26278;DHT22;14000;52.056;8.510;2023-04-03T01:48:50;1.60;99.90
26278;DHT22;14000;52.056;8.510;2023-04-03T01:51:16;1.50;99.90
26278;DHT22;14000;52.056;8.510;2023-04-03T01:53:42;1.50;99.90
26278;DHT22;14000;52.056;8.510;2023-04-03T01:56:08;1.50;99.90
26278;DHT22;14000;52.056;8.510;2023-04-03T01:58:34;1.50;99.90
26278;DHT22;14000;52.056;8.510;2023-04-03T02:00:59;1.40;99.90
26278;DHT22;14000;52.056;8.510;2023-04-03T02:03:25;1.40;99.90
26278;DHT22;14000;52.056;8.510;2023-04-03T02:05:51;1.40;99.90
26278;DHT22;14000;52.056;8.510;2023-04-03T02:08:17;1.30;99.90
26278;DHT22;14000;52.056;8.510;2023-04-03T02:10:44;1.30;99.90
26278;DHT22;14000;52.056;8.510;2023-04-03T02:13:10;1.30;99.90
26278;DHT22;14000;52.056;8.510;2023-04-03T02:15:38;1.20;99.90
26278;DHT22;14000;52.056;8.510;2023-04-03T02:18:04;1.20;99.90
26278;DHT22;14000;52.056;8.510;2023-04-03T02:20:30;1.20;99.90
26278;DHT22;14000;52.056;8.510;2023-04-03T02:22:56;1.10;99.90
26278;DHT22;14000;52.056;8.510;2023-04-03T02:25:21;1.10;99.90
26278;DHT22;14000;52.056;8.510;2023-04-03T02:27:47;1.10;99.90
26278;DHT22;14000;52.056;8.510;2023-04-03T02:30:13;1.10;99.90
26278;DHT22;14000;52.056;8.510;2023-04-03T02:32:40;1.00;99.90
26278;DHT22;14000;52.056;8.510;2023-04-03T02:35:06;1.00;99.90
26278;DHT22;14000;52.056;8.510;2023-04-03T02:37:32;1.00;99.90
26278;DHT22;14000;52.056;8.510;2023-04-03T02:39:58;1.00;99.90
26278;DHT22;14000;52.056;8.510;2023-04-03T02:42:23;1.00;99.90
26278;DHT22;14000;52.056;8.510;2023-04-03T02:44:49;0.90;99.90
26278;DHT22;14000;52.056;8.510;2023-04-03T02:47:15;0.90;99.90
26278;DHT22;14000;52.056;8.510;2023-04-03T02:49:41;0.90;99.90
26278;DHT22;14000;52.056;8.510;2023-04-03T02:52:09;0.80;99.90
26278;DHT22;14000;52.056;8.510;2023-04-03T02:54:34;0.80;99.90
26278;DHT22;14000;52.056;8.510;2023-04-03T02:57:00;0.70;99.90
26278;DHT22;14000;52.056;8.510;2023-04-03T02:59:26;0.70;99.90
26278;DHT22;14000;52.056;8.510;2023-04-03T03:01:52;0.70;99.90
26278;DHT22;14000;52.056;8.510;2023-04-03T03:04:17;0.70;99.90
26278;DHT22;14000;52.056;8.510;2023-04-03T03:06:43;0.70;99.90
26278;DHT22;14000;52.056;8.510;2023-04-03T03:09:09;0.60;99.90
26278;DHT22;14000;52.056;8.510;2023-04-03T03:11:34;0.60;99.90
26278;DHT22;14000;52.056;8.510;2023-04-03T03:14:00;0.60;99.90
26278;DHT22;14000;52.056;8.510;2023-04-03T03:16:26;0.50;99.90
26278;DHT22;14000;52.056;8.510;2023-04-03T03:18:51;0.50;99.90
26278;DHT22;14000;52.056;8.510;2023-04-03T03:21:17;0.50;99.90
26278;DHT22;14000;52.056;8.510;2023-04-03T03:23:43;0.50;99.90
26278;DHT22;14000;52.056;8.510;2023-04-03T03:26:10;0.50;99.90
26278;DHT22;14000;52.056;8.510;2023-04-03T03:28:36;0.50;99.90
26278;DHT22;14000;52.056;8.510;2023-04-03T03:31:02;0.50;99.90
26278;DHT22;14000;52.056;8.510;2023-04-03T03:33:28;0.50;99.90
26278;DHT22;14000;52.056;8.510;2023-04-03T03:35:54;0.50;99.90
26278;DHT22;14000;52.056;8.510;2023-04-03T03:38:20;0.40;99.90
26278;DHT22;14000;52.056;8.510;2023-04-03T03:40:50;0.40;99.90
26278;DHT22;14000;52.056;8.510;2023-04-03T03:43:16;0.40;99.90
26278;DHT22;14000;52.056;8.510;2023-04-03T03:45:42;0.40;99.90
26278;DHT22;14000;52.056;8.510;2023-04-03T03:48:08;0.30;99.90
26278;DHT22;14000;52.056;8.510;2023-04-03T03:50:34;0.30;99.90
26278;DHT22;14000;52.056;8.510;2023-04-03T03:52:59;0.30;99.90
26278;DHT22;14000;52.056;8.510;2023-04-03T03:55:25;0.20;99.90
26278;DHT22;14000;52.056;8.510;2023-04-03T03:57:51;0.20;99.90
26278;DHT22;14000;52.056;8.510;2023-04-03T04:00:17;0.20;99.90
26278;DHT22;14000;52.056;8.510;2023-04-03T04:02:43;0.10;99.90
26278;DHT22;14000;52.056;8.510;2023-04-03T04:05:09;0.10;99.90
26278;DHT22;14000;52.056;8.510;2023-04-03T04:07:35;0.10;99.90
26278;DHT22;14000;52.056;8.510;2023-04-03T04:10:00;0.10;99.90
26278;DHT22;14000;52.056;8.510;2023-04-03T04:12:26;0.00;99.90
26278;DHT22;14000;52.056;8.510;2023-04-03T04:14:51;0.00;99.90
26278;DHT22;14000;52.056;8.510;2023-04-03T04:17:17;0.00;99.90
26278;DHT22;14000;52.056;8.510;2023-04-03T04:19:43;0.00;99.90
26278;DHT22;14000;52.056;8.510;2023-04-03T04:22:08;0.00;99.90
26278;DHT22;14000;52.056;8.510;2023-04-03T04:24:34;-0.10;99.90
26278;DHT22;14000;52.056;8.510;2023-04-03T04:27:00;-0.10;99.90
26278;DHT22;14000;52.056;8.510;2023-04-03T04:29:25;-0.10;99.90
26278;DHT22;14000;52.056;8.510;2023-04-03T04:31:51;-0.10;99.90
26278;DHT22;14000;52.056;8.510;2023-04-03T04:34:16;-0.10;99.90
26278;DHT22;14000;52.056;8.510;2023-04-03T04:36:42;-0.10;99.90
26278;DHT22;14000;52.056;8.510;2023-04-03T04:39:08;-0.10;99.90
26278;DHT22;14000;52.056;8.510;2023-04-03T04:41:33;-0.20;99.90
26278;DHT22;14000;52.056;8.510;2023-04-03T04:44:00;-0.10;99.90
26278;DHT22;14000;52.056;8.510;2023-04-03T04:46:26;-0.20;99.90
26278;DHT22;14000;52.056;8.510;2023-04-03T04:48:51;-0.20;99.90
26278;DHT22;14000;52.056;8.510;2023-04-03T04:51:17;-0.20;99.90
26278;DHT22;14000;52.056;8.510;2023-04-03T04:53:42;-0.20;99.90
26278;DHT22;14000;52.056;8.510;2023-04-03T04:56:08;-0.20;99.90
26278;DHT22;14000;52.056;8.510;2023-04-03T04:58:34;-0.20;99.90
26278;DHT22;14000;52.056;8.510;2023-04-03T05:01:01;-0.20;99.90
26278;DHT22;14000;52.056;8.510;2023-04-03T05:03:27;-0.20;99.90
26278;DHT22;14000;52.056;8.510;2023-04-03T05:05:52;-0.20;99.90
26278;DHT22;14000;52.056;8.510;2023-04-03T05:08:18;-0.20;99.90
26278;DHT22;14000;52.056;8.510;2023-04-03T05:10:45;-0.20;99.90
26278;DHT22;14000;52.056;8.510;2023-04-03T05:13:11;-0.20;99.90
26278;DHT22;14000;52.056;8.510;2023-04-03T05:15:36;-0.20;99.90
26278;DHT22;14000;52.056;8.510;2023-04-03T05:18:02;-0.20;99.90
26278;DHT22;14000;52.056;8.510;2023-04-03T05:20:28;-0.20;99.90
26278;DHT22;14000;52.056;8.510;2023-04-03T05:22:53;-0.20;99.90
26278;DHT22;14000;52.056;8.510;2023-04-03T05:25:19;-0.20;99.90
26278;DHT22;14000;52.056;8.510;2023-04-03T05:27:44;-0.10;99.90
26278;DHT22;14000;52.056;8.510;2023-04-03T05:30:10;-0.10;99.90
26278;DHT22;14000;52.056;8.510;2023-04-03T05:32:36;-0.10;99.90
26278;DHT22;14000;52.056;8.510;2023-04-03T05:35:02;-0.10;99.90
26278;DHT22;14000;52.056;8.510;2023-04-03T05:37:28;-0.10;99.90
26278;DHT22;14000;52.056;8.510;2023-04-03T05:39:54;0.00;99.90
26278;DHT22;14000;52.056;8.510;2023-04-03T05:42:19;0.00;99.90
26278;DHT22;14000;52.056;8.510;2023-04-03T05:44:47;0.00;99.90
26278;DHT22;14000;52.056;8.510;2023-04-03T05:47:16;0.10;99.90
26278;DHT22;14000;52.056;8.510;2023-04-03T05:49:42;0.00;99.90
26278;DHT22;14000;52.056;8.510;2023-04-03T05:52:37;0.10;99.90
26278;DHT22;14000;52.056;8.510;2023-04-03T05:55:04;0.10;99.90
26278;DHT22;14000;52.056;8.510;2023-04-03T05:57:30;0.20;99.90
26278;DHT22;14000;52.056;8.510;2023-04-03T05:59:55;0.20;99.90
26278;DHT22;14000;52.056;8.510;2023-04-03T06:02:23;0.20;99.90
26278;DHT22;14000;52.056;8.510;2023-04-03T06:04:50;0.30;99.90
26278;DHT22;14000;52.056;8.510;2023-04-03T06:07:19;0.30;99.90
26278;DHT22;14000;52.056;8.510;2023-04-03T06:09:47;0.30;99.90
26278;DHT22;14000;52.056;8.510;2023-04-03T06:12:12;0.40;99.90
26278;DHT22;14000;52.056;8.510;2023-04-03T06:14:38;0.40;99.90
26278;DHT22;14000;52.056;8.510;2023-04-03T06:17:07;0.50;99.90
26278;DHT22;14000;52.056;8.510;2023-04-03T06:19:34;0.50;99.90
26278;DHT22;14000;52.056;8.510;2023-04-03T06:22:00;0.50;99.90
26278;DHT22;14000;52.056;8.510;2023-04-03T06:24:26;0.50;99.90
26278;DHT22;14000;52.056;8.510;2023-04-03T06:26:52;0.60;99.90
26278;DHT22;14000;52.056;8.510;2023-04-03T06:29:19;0.60;99.90
26278;DHT22;14000;52.056;8.510;2023-04-03T06:31:45;0.70;99.90
26278;DHT22;14000;52.056;8.510;2023-04-03T06:34:11;0.70;99.90
26278;DHT22;14000;52.056;8.510;2023-04-03T06:36:38;0.70;99.90
26278;DHT22;14000;52.056;8.510;2023-04-03T06:39:04;0.80;99.90
26278;DHT22;14000;52.056;8.510;2023-04-03T06:41:31;0.80;99.90
26278;DHT22;14000;52.056;8.510;2023-04-03T06:43:56;0.80;99.90
26278;DHT22;14000;52.056;8.510;2023-04-03T06:46:24;0.90;99.90
26278;DHT22;14000;52.056;8.510;2023-04-03T06:48:50;0.90;99.90
26278;DHT22;14000;52.056;8.510;2023-04-03T06:51:21;1.00;99.90
26278;DHT22;14000;52.056;8.510;2023-04-03T06:53:48;1.00;99.90
26278;DHT22;14000;52.056;8.510;2023-04-03T06:56:15;1.10;99.90
26278;DHT22;14000;52.056;8.510;2023-04-03T06:58:41;1.10;99.90
26278;DHT22;14000;52.056;8.510;2023-04-03T07:01:07;1.20;99.90
26278;DHT22;14000;52.056;8.510;2023-04-03T07:03:33;1.20;99.90
26278;DHT22;14000;52.056;8.510;2023-04-03T07:05:59;1.30;99.90
26278;DHT22;14000;52.056;8.510;2023-04-03T07:08:24;1.30;99.90
26278;DHT22;14000;52.056;8.510;2023-04-03T07:10:51;1.40;99.90
26278;DHT22;14000;52.056;8.510;2023-04-03T07:13:17;1.40;99.90
26278;DHT22;14000;52.056;8.510;2023-04-03T07:15:42;1.50;99.90
26278;DHT22;14000;52.056;8.510;2023-04-03T07:18:08;1.60;99.90
26278;DHT22;14000;52.056;8.510;2023-04-03T07:20:33;1.70;99.90
26278;DHT22;14000;52.056;8.510;2023-04-03T07:22:59;1.80;99.90
26278;DHT22;14000;52.056;8.510;2023-04-03T07:25:27;1.90;99.90
26278;DHT22;14000;52.056;8.510;2023-04-03T07:27:53;1.90;99.90
26278;DHT22;14000;52.056;8.510;2023-04-03T07:30:20;2.00;99.90
26278;DHT22;14000;52.056;8.510;2023-04-03T07:32:46;2.10;99.90
26278;DHT22;14000;52.056;8.510;2023-04-03T07:35:12;2.10;99.90
26278;DHT22;14000;52.056;8.510;2023-04-03T07:37:37;2.20;99.90
26278;DHT22;14000;52.056;8.510;2023-04-03T07:40:03;2.30;99.90
26278;DHT22;14000;52.056;8.510;2023-04-03T07:42:29;2.30;99.90
26278;DHT22;14000;52.056;8.510;2023-04-03T07:44:55;2.40;99.90
26278;DHT22;14000;52.056;8.510;2023-04-03T07:47:21;2.50;99.90
26278;DHT22;14000;52.056;8.510;2023-04-03T07:49:47;2.60;99.90
26278;DHT22;14000;52.056;8.510;2023-04-03T07:52:13;2.70;99.90
26278;DHT22;14000;52.056;8.510;2023-04-03T07:54:41;2.80;99.90
26278;DHT22;14000;52.056;8.510;2023-04-03T07:57:07;2.80;99.90
26278;DHT22;14000;52.056;8.510;2023-04-03T07:59:32;3.00;99.90
26278;DHT22;14000;52.056;8.510;2023-04-03T08:01:58;3.10;99.90
26278;DHT22;14000;52.056;8.510;2023-04-03T08:04:24;3.20;99.90
26278;DHT22;14000;52.056;8.510;2023-04-03T08:06:50;3.20;99.90
26278;DHT22;14000;52.056;8.510;2023-04-03T08:09:16;3.20;99.90
26278;DHT22;14000;52.056;8.510;2023-04-03T08:11:42;3.30;99.90
26278;DHT22;14000;52.056;8.510;2023-04-03T08:14:07;3.30;99.90
26278;DHT22;14000;52.056;8.510;2023-04-03T08:16:33;3.40;99.90
26278;DHT22;14000;52.056;8.510;2023-04-03T08:18:59;3.40;99.90
26278;DHT22;14000;52.056;8.510;2023-04-03T08:21:25;3.40;99.90
26278;DHT22;14000;52.056;8.510;2023-04-03T08:23:51;3.50;99.90
26278;DHT22;14000;52.056;8.510;2023-04-03T08:26:19;3.60;99.90
26278;DHT22;14000;52.056;8.510;2023-04-03T08:28:47;3.60;99.90
26278;DHT22;14000;52.056;8.510;2023-04-03T08:31:16;3.60;99.90
26278;DHT22;14000;52.056;8.510;2023-04-03T08:33:42;3.60;99.90
26278;DHT22;14000;52.056;8.510;2023-04-03T08:36:22;3.70;99.90
26278;DHT22;14000;52.056;8.510;2023-04-03T08:38:49;3.70;99.90
26278;DHT22;14000;52.056;8.510;2023-04-03T08:44:25;3.70;99.90
26278;DHT22;14000;52.056;8.510;2023-04-03T08:49:42;3.90;99.90
26278;DHT22;14000;52.056;8.510;2023-04-03T08:52:44;4.00;99.90
26278;DHT22;14000;52.056;8.510;2023-04-03T08:57:44;4.00;99.90
26278;DHT22;14000;52.056;8.510;2023-04-03T09:02:53;4.20;99.90
26278;DHT22;14000;52.056;8.510;2023-04-03T09:05:41;4.20;99.90
26278;DHT22;14000;52.056;8.510;2023-04-03T09:08:28;4.20;99.90
26278;DHT22;14000;52.056;8.510;2023-04-03T09:19:29;4.50;99.90
26278;DHT22;14000;52.056;8.510;2023-04-03T09:22:16;4.50;99.90
26278;DHT22;14000;52.056;8.510;2023-04-03T09:24:45;4.50;99.90
26278;DHT22;14000;52.056;8.510;2023-04-03T09:27:12;4.50;99.90
26278;DHT22;14000;52.056;8.510;2023-04-03T09:29:41;4.60;99.90
26278;DHT22;14000;52.056;8.510;2023-04-03T09:32:33;4.80;99.90
26278;DHT22;14000;52.056;8.510;2023-04-03T09:35:03;4.80;99.90
26278;DHT22;14000;52.056;8.510;2023-04-03T09:40:05;5.00;99.90
26278;DHT22;14000;52.056;8.510;2023-04-03T09:42:31;5.00;99.90
26278;DHT22;14000;52.056;8.510;2023-04-03T09:45:03;5.10;99.90
26278;DHT22;14000;52.056;8.510;2023-04-03T09:47:36;5.20;99.90
26278;DHT22;14000;52.056;8.510;2023-04-03T09:52:46;5.40;99.90
26278;DHT22;14000;52.056;8.510;2023-04-03T09:55:18;5.50;99.90
26278;DHT22;14000;52.056;8.510;2023-04-03T09:57:46;5.60;99.90
26278;DHT22;14000;52.056;8.510;2023-04-03T10:00:23;5.50;99.90
26278;DHT22;14000;52.056;8.510;2023-04-03T10:02:55;5.60;99.90
26278;DHT22;14000;52.056;8.510;2023-04-03T10:05:48;5.70;99.90
26278;DHT22;14000;52.056;8.510;2023-04-03T10:08:19;5.70;99.90
26278;DHT22;14000;52.056;8.510;2023-04-03T10:10:47;5.80;99.90
26278;DHT22;14000;52.056;8.510;2023-04-03T10:13:20;5.90;99.90
26278;DHT22;14000;52.056;8.510;2023-04-03T10:16:02;6.00;99.90
26278;DHT22;14000;52.056;8.510;2023-04-03T10:21:20;6.50;99.90
26278;DHT22;14000;52.056;8.510;2023-04-03T10:23:57;6.70;99.90
26278;DHT22;14000;52.056;8.510;2023-04-03T10:26:50;7.00;99.90
26278;DHT22;14000;52.056;8.510;2023-04-03T10:32:29;7.30;99.90
26278;DHT22;14000;52.056;8.510;2023-04-03T10:38:05;7.50;99.90
26278;DHT22;14000;52.056;8.510;2023-04-03T10:43:54;7.70;99.90
26278;DHT22;14000;52.056;8.510;2023-04-03T10:49:01;7.90;99.90
26278;DHT22;14000;52.056;8.510;2023-04-03T10:51:42;7.90;99.90
26278;DHT22;14000;52.056;8.510;2023-04-03T10:54:24;7.80;99.90
26278;DHT22;14000;52.056;8.510;2023-04-03T10:56:54;7.80;99.90
26278;DHT22;14000;52.056;8.510;2023-04-03T10:59:32;7.60;99.90
26278;DHT22;14000;52.056;8.510;2023-04-03T11:02:06;7.70;99.90
26278;DHT22;14000;52.056;8.510;2023-04-03T11:04:36;7.80;99.90
26278;DHT22;14000;52.056;8.510;2023-04-03T11:07:17;8.00;99.90
26278;DHT22;14000;52.056;8.510;2023-04-03T11:09:46;8.20;99.90
26278;DHT22;14000;52.056;8.510;2023-04-03T11:12:40;8.30;99.90
26278;DHT22;14000;52.056;8.510;2023-04-03T11:15:15;8.40;99.90
26278;DHT22;14000;52.056;8.510;2023-04-03T11:17:46;8.60;99.90
26278;DHT22;14000;52.056;8.510;2023-04-03T11:20:31;8.70;99.90
26278;DHT22;14000;52.056;8.510;2023-04-03T11:25:43;9.00;99.90
26278;DHT22;14000;52.056;8.510;2023-04-03T11:28:13;8.90;99.90
26278;DHT22;14000;52.056;8.510;2023-04-03T11:33:58;8.20;99.90
26278;DHT22;14000;52.056;8.510;2023-04-03T11:36:45;8.20;99.90
26278;DHT22;14000;52.056;8.510;2023-04-03T11:41:45;8.00;99.90
26278;DHT22;14000;52.056;8.510;2023-04-03T11:46:58;8.20;99.90
26278;DHT22;14000;52.056;8.510;2023-04-03T11:52:54;7.80;99.90
26278;DHT22;14000;52.056;8.510;2023-04-03T12:16:33;7.60;99.90
26278;DHT22;14000;52.056;8.510;2023-04-03T12:24:51;8.10;99.90
26278;DHT22;14000;52.056;8.510;2023-04-03T12:27:29;8.30;99.90
26278;DHT22;14000;52.056;8.510;2023-04-03T12:30:04;8.10;99.90
26278;DHT22;14000;52.056;8.510;2023-04-03T12:35:28;8.10;99.90
26278;DHT22;14000;52.056;8.510;2023-04-03T12:40:47;8.00;99.90
26278;DHT22;14000;52.056;8.510;2023-04-03T12:48:51;7.60;99.90
26278;DHT22;14000;52.056;8.510;2023-04-03T12:51:42;7.70;99.90
26278;DHT22;14000;52.056;8.510;2023-04-03T12:54:36;8.10;99.90
26278;DHT22;14000;52.056;8.510;2023-04-03T12:59:40;9.00;99.90
26278;DHT22;14000;52.056;8.510;2023-04-03T13:02:36;9.50;99.90
26278;DHT22;14000;52.056;8.510;2023-04-03T13:05:09;9.90;99.90
26278;DHT22;14000;52.056;8.510;2023-04-03T13:07:39;10.30;99.90
26278;DHT22;14000;52.056;8.510;2023-04-03T13:10:14;10.50;99.90
26278;DHT22;14000;52.056;8.510;2023-04-03T13:12:54;10.70;99.90
26278;DHT22;14000;52.056;8.510;2023-04-03T13:17:45;10.90;99.90
26278;DHT22;14000;52.056;8.510;2023-04-03T13:20:22;11.10;99.90
26278;DHT22;14000;52.056;8.510;2023-04-03T13:22:59;11.30;99.90
26278;DHT22;14000;52.056;8.510;2023-04-03T13:25:29;11.60;99.90
26278;DHT22;14000;52.056;8.510;2023-04-03T13:27:56;11.90;99.90
26278;DHT22;14000;52.056;8.510;2023-04-03T13:32:51;11.60;99.90
26278;DHT22;14000;52.056;8.510;2023-04-03T13:35:35;11.50;99.90
26278;DHT22;14000;52.056;8.510;2023-04-03T13:38:27;11.40;99.90
26278;DHT22;14000;52.056;8.510;2023-04-03T13:40:56;11.60;99.90
26278;DHT22;14000;52.056;8.510;2023-04-03T13:43:32;11.60;99.90
26278;DHT22;14000;52.056;8.510;2023-04-03T13:48:48;11.60;99.90
26278;DHT22;14000;52.056;8.510;2023-04-03T13:56:27;11.60;99.90
26278;DHT22;14000;52.056;8.510;2023-04-03T14:01:24;11.20;99.90
26278;DHT22;14000;52.056;8.510;2023-04-03T14:03:55;10.70;99.90
26278;DHT22;14000;52.056;8.510;2023-04-03T14:06:22;10.40;99.90
26278;DHT22;14000;52.056;8.510;2023-04-03T14:08:48;9.80;99.90
26278;DHT22;14000;52.056;8.510;2023-04-03T14:11:34;9.50;99.90
26278;DHT22;14000;52.056;8.510;2023-04-03T14:14:06;10.30;99.90
26278;DHT22;14000;52.056;8.510;2023-04-03T14:16:39;10.50;99.90
26278;DHT22;14000;52.056;8.510;2023-04-03T14:19:04;10.00;99.90
26278;DHT22;14000;52.056;8.510;2023-04-03T14:21:30;9.50;99.90
26278;DHT22;14000;52.056;8.510;2023-04-03T14:23:56;9.10;99.90
26278;DHT22;14000;52.056;8.510;2023-04-03T14:26:23;8.90;99.90
26278;DHT22;14000;52.056;8.510;2023-04-03T14:28:54;9.10;99.90
26278;DHT22;14000;52.056;8.510;2023-04-03T14:31:21;10.20;99.90
26278;DHT22;14000;52.056;8.510;2023-04-03T14:33:47;10.10;99.90
26278;DHT22;14000;52.056;8.510;2023-04-03T14:36:25;10.60;99.90
26278;DHT22;14000;52.056;8.510;2023-04-03T14:38:52;11.60;99.90
26278;DHT22;14000;52.056;8.510;2023-04-03T14:41:21;12.80;99.90
26278;DHT22;14000;52.056;8.510;2023-04-03T14:43:48;13.60;99.90
26278;DHT22;14000;52.056;8.510;2023-04-03T14:46:21;13.60;99.90
26278;DHT22;14000;52.056;8.510;2023-04-03T14:48:48;14.10;99.90
26278;DHT22;14000;52.056;8.510;2023-04-03T14:51:15;14.50;99.90
26278;DHT22;14000;52.056;8.510;2023-04-03T14:53:42;14.80;99.90
26278;DHT22;14000;52.056;8.510;2023-04-03T14:56:23;13.90;99.90
26278;DHT22;14000;52.056;8.510;2023-04-03T14:58:55;12.80;99.90
26278;DHT22;14000;52.056;8.510;2023-04-03T15:01:21;11.80;99.90
26278;DHT22;14000;52.056;8.510;2023-04-03T15:03:47;11.30;99.90
26278;DHT22;14000;52.056;8.510;2023-04-03T15:06:14;11.00;99.90
26278;DHT22;14000;52.056;8.510;2023-04-03T15:08:40;10.80;99.90
26278;DHT22;14000;52.056;8.510;2023-04-03T15:11:08;10.90;99.90
26278;DHT22;14000;52.056;8.510;2023-04-03T15:13:35;11.00;99.90
26278;DHT22;14000;52.056;8.510;2023-04-03T15:16:01;10.80;99.90
26278;DHT22;14000;52.056;8.510;2023-04-03T15:18:36;10.50;99.90
26278;DHT22;14000;52.056;8.510;2023-04-03T15:21:03;10.50;99.90
26278;DHT22;14000;52.056;8.510;2023-04-03T15:23:29;10.70;99.90
26278;DHT22;14000;52.056;8.510;2023-04-03T15:25:55;10.80;99.90
26278;DHT22;14000;52.056;8.510;2023-04-03T15:28:37;11.00;99.90
26278;DHT22;14000;52.056;8.510;2023-04-03T15:31:04;10.80;99.90
26278;DHT22;14000;52.056;8.510;2023-04-03T15:33:30;10.50;99.90
26278;DHT22;14000;52.056;8.510;2023-04-03T15:35:56;10.40;99.90
26278;DHT22;14000;52.056;8.510;2023-04-03T15:38:22;10.20;99.90
26278;DHT22;14000;52.056;8.510;2023-04-03T15:40:48;10.00;99.90
26278;DHT22;14000;52.056;8.510;2023-04-03T15:43:14;9.90;99.90
26278;DHT22;14000;52.056;8.510;2023-04-03T15:45:40;9.70;99.90
26278;DHT22;14000;52.056;8.510;2023-04-03T15:48:06;9.60;99.90
26278;DHT22;14000;52.056;8.510;2023-04-03T15:50:33;9.90;99.90
26278;DHT22;14000;52.056;8.510;2023-04-03T15:52:59;9.90;99.90
26278;DHT22;14000;52.056;8.510;2023-04-03T15:55:28;10.10;99.90
26278;DHT22;14000;52.056;8.510;2023-04-03T15:57:55;10.10;99.90
26278;DHT22;14000;52.056;8.510;2023-04-03T16:00:22;10.10;99.90
26278;DHT22;14000;52.056;8.510;2023-04-03T16:02:50;10.10;99.90
26278;DHT22;14000;52.056;8.510;2023-04-03T16:05:18;10.10;99.90
26278;DHT22;14000;52.056;8.510;2023-04-03T16:07:44;10.20;99.90
26278;DHT22;14000;52.056;8.510;2023-04-03T16:10:12;10.10;99.90
26278;DHT22;14000;52.056;8.510;2023-04-03T16:12:37;10.10;99.90
26278;DHT22;14000;52.056;8.510;2023-04-03T16:15:04;10.00;99.90
26278;DHT22;14000;52.056;8.510;2023-04-03T16:17:31;10.30;99.90
26278;DHT22;14000;52.056;8.510;2023-04-03T16:19:57;10.50;99.90
26278;DHT22;14000;52.056;8.510;2023-04-03T16:22:25;10.60;99.90
26278;DHT22;14000;52.056;8.510;2023-04-03T16:24:51;10.50;99.90
26278;DHT22;14000;52.056;8.510;2023-04-03T16:27:17;10.20;99.90
26278;DHT22;14000;52.056;8.510;2023-04-03T16:29:42;9.60;99.90
26278;DHT22;14000;52.056;8.510;2023-04-03T16:32:08;9.50;99.90
26278;DHT22;14000;52.056;8.510;2023-04-03T16:34:34;9.30;99.90
26278;DHT22;14000;52.056;8.510;2023-04-03T16:37:00;9.30;99.90
26278;DHT22;14000;52.056;8.510;2023-04-03T16:39:26;9.50;99.90
26278;DHT22;14000;52.056;8.510;2023-04-03T16:41:52;9.60;99.90
26278;DHT22;14000;52.056;8.510;2023-04-03T16:44:17;9.70;99.90
26278;DHT22;14000;52.056;8.510;2023-04-03T16:46:43;9.80;99.90
26278;DHT22;14000;52.056;8.510;2023-04-03T16:49:08;9.80;99.90
26278;DHT22;14000;52.056;8.510;2023-04-03T16:51:34;9.90;99.90
26278;DHT22;14000;52.056;8.510;2023-04-03T16:54:00;9.80;99.90
26278;DHT22;14000;52.056;8.510;2023-04-03T16:56:26;9.70;99.90
26278;DHT22;14000;52.056;8.510;2023-04-03T16:58:54;9.50;99.90
26278;DHT22;14000;52.056;8.510;2023-04-03T17:01:21;9.40;99.90
26278;DHT22;14000;52.056;8.510;2023-04-03T17:03:47;9.10;99.90
26278;DHT22;14000;52.056;8.510;2023-04-03T17:06:17;9.00;99.90
26278;DHT22;14000;52.056;8.510;2023-04-03T17:08:45;8.80;99.90
26278;DHT22;14000;52.056;8.510;2023-04-03T17:11:11;8.70;99.90
26278;DHT22;14000;52.056;8.510;2023-04-03T17:13:37;8.60;99.90
26278;DHT22;14000;52.056;8.510;2023-04-03T17:16:04;8.50;99.90
26278;DHT22;14000;52.056;8.510;2023-04-03T17:18:31;8.40;99.90
26278;DHT22;14000;52.056;8.510;2023-04-03T17:20:57;8.40;99.90
26278;DHT22;14000;52.056;8.510;2023-04-03T17:23:26;8.40;99.90
26278;DHT22;14000;52.056;8.510;2023-04-03T17:25:54;8.50;99.90
26278;DHT22;14000;52.056;8.510;2023-04-03T17:28:23;8.50;99.90
26278;DHT22;14000;52.056;8.510;2023-04-03T17:30:59;8.20;99.90
26278;DHT22;14000;52.056;8.510;2023-04-03T17:33:26;8.10;99.90
26278;DHT22;14000;52.056;8.510;2023-04-03T17:35:55;8.10;99.90
26278;DHT22;14000;52.056;8.510;2023-04-03T17:38:21;8.10;99.90
26278;DHT22;14000;52.056;8.510;2023-04-03T17:40:47;8.00;99.90
26278;DHT22;14000;52.056;8.510;2023-04-03T17:43:12;8.00;99.90
26278;DHT22;14000;52.056;8.510;2023-04-03T17:45:38;7.90;99.90
26278;DHT22;14000;52.056;8.510;2023-04-03T17:48:04;7.80;99.90
26278;DHT22;14000;52.056;8.510;2023-04-03T17:50:30;7.80;99.90
26278;DHT22;14000;52.056;8.510;2023-04-03T17:52:55;7.90;99.90